Corona Range LRC

April 5, 2020, 9:40 a.m.

  • imperial
Air Temperature RH Dewpoint Wind Chill Heat Index Wind Speed Wind Direction Precipitation Solar Radiation Soil Temperature
Date Time Max Mean Mean Total Total
US/Mountain F % F F F MPH MPH MPH deg. deg. in. MJ/m^2 F
2020-04-04 09:40 37.09 76.3 30.33 31.91 37.09 6.53 10.27 8.25 143.1 140.4 0.0 0.11 59.83
2020-04-04 09:45 38.14 74.11 30.62 33.39 38.14 6.17 10.63 7.65 135.6 157.9 0.0 0.112 59.86
2020-04-04 09:50 38.5 73.36 30.72 33.48 38.5 6.71 9.4 6.26 212.8 160.4 0.0 0.115 59.94
2020-04-04 09:55 39.54 67.82 29.79 33.4 39.54 9.22 9.73 7.02 138.1 153.0 0.0 0.118 59.97
2020-04-04 10:00 39.72 69.35 30.51 35.06 39.72 6.53 10.09 5.97 182.9 159.2 0.0 0.121 60.08
2020-04-04 10:05 40.33 66.85 30.19 37.19 40.33 4.56 7.43 5.46 185.0 136.6 0.0 0.123 60.15
2020-04-04 10:10 40.93 66.47 30.62 37.73 40.93 4.74 9.22 6.2 126.5 145.2 0.0 0.126 60.24
2020-04-04 10:15 42.04 63.81 30.67 37.64 42.04 6.89 8.68 5.7 180.2 164.6 0.0 0.129 60.37
2020-04-04 10:20 42.28 62.47 30.37 38.92 42.28 5.28 8.48 6.69 102.7 121.2 0.0 0.132 60.49
2020-04-04 10:25 43.2 60.69 30.53 37.9 43.2 9.22 9.4 6.11 148.6 141.6 0.0 0.135 60.64
2020-04-04 10:30 44.11 59.26 30.8 40.97 44.11 5.46 10.45 6.6 151.4 158.8 0.0 0.137 60.82
2020-04-04 10:35 45.46 56.49 30.89 42.14 45.46 6.17 10.8 7.36 121.0 144.8 0.0 0.14 61.02
2020-04-04 10:40 45.57 55.67 30.63 43.43 45.57 4.38 10.8 7.54 162.2 157.7 0.0 0.142 61.23
2020-04-04 10:45 46.44 53.82 30.6 43.83 46.44 5.28 12.06 7.27 146.3 147.6 0.0 0.145 61.52
2020-04-04 10:50 47.05 52.97 30.78 44.03 47.05 6.17 8.86 6.2 160.8 147.0 0.0 0.147 61.81
2020-04-04 10:55 47.71 52.35 31.11 44.73 47.71 6.35 10.8 7.29 170.7 137.7 0.0 0.149 62.1
2020-04-04 11:00 48.27 52.04 31.48 44.89 48.27 7.43 9.04 6.6 96.9 126.5 0.0 0.151 62.37
2020-04-04 11:05 48.69 49.41 30.58 44.8 48.69 8.86 8.86 6.26 94.2 126.1 0.0 0.153 62.67
2020-04-04 11:10 48.74 50.09 30.97 45.37 48.74 7.61 8.86 6.4 117.1 115.2 0.0 0.155 62.89
2020-04-04 11:15 49.91 46.33 30.12 47.11 49.91 6.89 9.73 6.58 150.3 127.0 0.0 0.157 63.07
2020-04-04 11:20 50.76 48.92 32.24 50.76 50.76 6.89 9.91 5.79 112.6 143.7 0.0 0.158 63.23
2020-04-04 11:25 50.63 46.33 30.78 50.63 50.63 4.74 8.3 5.91 163.1 128.9 0.0 0.158 63.52
2020-04-04 11:30 52.54 42.1 30.15 52.54 52.54 6.71 9.04 5.08 140.4 138.7 0.0 0.161 63.7
2020-04-04 11:35 53.82 42.5 31.54 53.82 53.82 6.53 12.77 6.51 132.6 119.4 0.0 0.164 63.91
2020-04-04 11:40 54.07 41.27 31.04 54.07 54.07 9.91 9.91 6.98 121.6 117.4 0.0 0.165 64.22
2020-04-04 11:45 53.87 38.34 29.05 53.87 53.87 7.96 8.86 6.04 188.9 141.0 0.0 0.166 64.54
2020-04-04 11:50 54.66 38.61 29.93 54.66 54.66 9.4 11.88 8.57 149.6 160.5 0.0 0.169 64.89
2020-04-04 11:55 54.91 36.53 28.8 54.91 54.91 6.0 9.4 5.77 119.9 142.5 0.0 0.169 65.23
2020-04-04 12:00 55.83 36.53 29.62 55.83 55.83 7.07 7.78 4.27 182.7 115.1 0.0 0.17 65.59
2020-04-04 12:05 55.89 38.03 30.66 55.89 55.89 1.52 9.91 5.66 95.3 184.1 0.0 0.171 65.93
2020-04-04 12:10 54.72 40.86 31.38 54.72 54.72 7.43 9.57 6.62 128.4 133.8 0.0 0.172 66.29
2020-04-04 12:15 55.15 40.04 31.27 55.15 55.15 10.98 11.16 8.1 117.6 122.7 0.0 0.176 67.12
2020-04-04 12:20 56.12 38.33 31.06 56.12 56.12 9.04 13.49 9.57 108.6 128.4 0.0 0.182 67.41
2020-04-04 12:25 56.05 37.88 30.7 56.05 56.05 13.31 13.85 10.29 115.4 128.2 0.0 0.167 67.77
2020-04-04 12:30 56.23 38.56 31.3 56.23 56.23 9.04 11.7 8.79 112.0 134.5 0.0 0.169 68.11
2020-04-04 12:35 57.09 38.43 31.99 57.09 57.09 9.04 9.91 7.31 143.9 138.8 0.0 0.182 68.5
2020-04-04 12:40 55.67 39.38 31.32 55.67 55.67 7.96 13.49 10.76 131.1 130.0 0.0 0.155 68.81
2020-04-04 12:45 56.35 37.33 30.62 56.35 56.35 10.27 11.34 8.52 131.3 144.6 0.0 0.162 69.06
2020-04-04 12:50 56.48 37.88 31.09 56.48 56.48 3.31 12.95 6.64 108.7 113.9 0.0 0.183 69.39
2020-04-04 12:55 56.23 37.37 30.53 56.23 56.23 7.61 10.45 8.08 174.7 132.6 0.0 0.064 69.62
2020-04-04 13:00 56.84 37.47 31.14 56.84 56.84 3.49 10.98 6.71 169.8 164.1 0.0 0.183 70.05
2020-04-04 13:05 57.02 35.94 30.27 57.02 57.02 9.04 14.38 9.66 236.3 148.9 0.0 0.187 71.01
2020-04-04 13:10 61.02 22.26 22.15 61.02 61.02 15.1 19.75 14.36 200.6 218.2 0.0 0.185 71.28
2020-04-04 13:15 60.89 21.65 21.38 60.89 60.89 15.99 21.54 15.48 210.7 220.4 0.0 0.184 71.58
2020-04-04 13:20 61.7 21.51 21.91 61.7 61.7 9.73 17.96 13.42 238.2 213.0 0.0 0.184 71.73
2020-04-04 13:25 61.02 24.11 24.05 61.02 61.02 10.27 19.22 11.32 221.4 225.6 0.0 0.169 71.98
2020-04-04 13:30 61.45 22.3 22.55 61.45 61.45 14.03 18.86 13.18 197.9 203.4 0.0 0.187 72.3
2020-04-04 13:35 61.74 21.41 21.83 61.74 61.74 15.1 15.64 10.18 196.4 216.9 0.0 0.188 72.61
2020-04-04 13:40 61.68 22.74 23.21 61.68 61.68 11.34 17.61 13.42 228.8 199.3 0.0 0.187 72.91
2020-04-04 13:45 62.22 21.03 21.81 62.22 62.22 10.27 21.72 15.84 211.2 218.3 0.0 0.187 73.24
2020-04-04 13:50 62.47 21.68 22.74 62.47 62.47 9.73 21.9 15.91 207.7 208.2 0.0 0.188 73.42
2020-04-04 13:55 62.53 23.25 24.46 62.53 62.53 14.2 18.86 12.46 189.2 199.4 0.0 0.195 73.69
2020-04-04 14:00 62.6 20.69 21.74 62.6 62.6 10.09 19.04 15.12 180.3 211.1 0.0 0.191 75.29
2020-04-04 14:05 64.0 23.25 25.7 64.0 64.0 10.98 12.95 8.23 170.5 212.2 0.0 0.206 76.05
2020-04-04 14:10 62.96 20.32 21.61 62.96 62.96 17.61 22.26 12.89 190.8 201.6 0.0 0.192 76.28
2020-04-04 14:15 63.14 20.08 21.48 63.14 63.14 10.45 17.78 13.02 187.2 198.4 0.0 0.179 76.51
2020-04-04 14:20 62.76 20.96 22.18 62.76 62.76 8.3 18.86 13.69 221.3 217.0 0.0 0.178 76.75
2020-04-04 14:25 63.37 19.84 21.39 63.37 63.37 19.22 19.57 14.74 196.2 212.7 0.0 0.16 76.98
2020-04-04 14:30 62.51 20.52 21.47 62.51 62.51 11.34 18.32 14.38 218.4 215.0 0.0 0.151 77.2
2020-04-04 14:35 63.32 19.67 21.14 63.32 63.32 12.59 20.83 12.93 250.7 216.8 0.0 0.168 77.41
2020-04-04 14:40 63.55 19.26 20.84 63.55 63.55 10.8 16.17 11.14 184.0 214.1 0.0 0.168 77.65
2020-04-04 14:45 64.17 19.12 21.17 64.17 64.17 13.13 18.14 12.5 202.4 222.5 0.0 0.166 77.81
2020-04-04 14:50 64.29 18.47 20.46 64.29 64.29 12.42 15.28 10.51 196.0 203.2 0.0 0.161 78.04
2020-04-04 14:55 63.55 18.27 19.6 63.55 63.55 13.49 19.93 14.85 173.7 201.9 0.0 0.16 78.26
2020-04-04 15:00 63.86 19.36 21.21 63.86 63.86 9.57 16.53 11.39 205.1 199.4 0.0 0.166 78.44
2020-04-04 15:05 64.54 17.59 19.52 64.54 64.54 16.89 18.86 12.33 201.4 203.8 0.0 0.164 78.62
2020-04-04 15:10 63.81 18.37 19.93 63.81 63.81 18.68 19.75 12.97 207.3 192.8 0.0 0.16 78.75
2020-04-04 15:15 63.86 18.06 19.58 63.86 63.86 16.35 25.28 16.24 236.8 210.2 0.0 0.153 78.85
2020-04-04 15:20 63.86 18.37 19.98 63.86 63.86 14.92 18.14 12.04 239.8 218.8 0.0 0.149 78.98
2020-04-04 15:25 64.06 19.26 21.26 64.06 64.06 12.24 19.39 13.51 234.7 230.9 0.0 0.147 79.09
2020-04-04 15:30 64.54 17.86 19.88 64.54 64.54 11.16 16.17 11.07 194.1 227.4 0.0 0.145 79.2
2020-04-04 15:35 63.86 18.17 19.72 63.86 63.86 6.71 13.13 8.7 197.5 194.5 0.0 0.138 79.32
2020-04-04 15:40 64.06 18.78 20.66 64.06 64.06 13.85 22.26 13.76 217.5 206.3 0.0 0.14 79.39
2020-04-04 15:45 63.37 18.44 19.67 63.37 63.37 15.46 22.26 14.85 218.5 203.0 0.0 0.137 79.48
2020-04-04 15:50 63.93 19.56 21.52 63.93 63.93 7.61 14.56 9.42 197.2 209.3 0.0 0.136 79.59
2020-04-04 15:55 63.93 18.2 19.82 63.93 63.93 15.64 15.64 8.57 224.1 196.6 0.0 0.131 79.66
2020-04-04 16:00 64.29 17.25 18.86 64.29 64.29 18.68 19.57 15.73 221.3 211.1 0.0 0.127 81.99
2020-04-04 16:05 63.55 18.47 19.85 63.55 63.55 9.57 17.78 9.22 192.4 211.0 0.0 0.123 82.06
2020-04-04 16:10 63.99 18.13 19.77 63.99 63.99 11.7 16.17 11.54 188.1 202.0 0.0 0.121 82.11
2020-04-04 16:15 63.55 18.51 19.91 63.55 63.55 9.22 17.07 12.55 221.8 216.6 0.0 0.111 82.2
2020-04-04 16:20 64.06 17.83 19.44 64.06 64.06 12.95 22.08 13.15 147.8 190.3 0.0 0.119 82.29
2020-04-04 16:25 63.43 17.66 18.7 63.43 63.43 16.89 16.89 10.6 199.5 203.2 0.0 0.116 82.42
2020-04-04 16:30 63.68 18.4 19.87 63.68 63.68 12.06 19.57 14.23 208.0 220.4 0.0 0.113 82.51
2020-04-04 16:35 63.81 19.05 20.79 63.81 63.81 11.52 14.03 10.76 226.0 241.1 0.0 0.108 82.72
2020-04-04 16:40 63.93 18.3 19.95 63.93 63.93 7.61 14.74 10.13 234.3 209.3 0.0 0.106 82.76
2020-04-04 16:45 63.68 18.13 19.52 63.68 63.68 11.88 17.96 13.09 191.9 212.4 0.0 0.098 83.55
2020-04-04 16:50 64.29 18.75 20.82 64.29 64.29 9.4 16.17 12.17 198.7 198.6 0.0 0.1 83.55
2020-04-04 16:55 64.11 18.47 20.31 64.11 64.11 11.16 16.17 12.57 187.7 199.7 0.0 0.096 83.61
2020-04-04 17:00 64.06 17.89 19.52 64.06 64.06 12.06 16.35 12.57 210.3 199.4 0.0 0.092 83.71
2020-04-04 17:05 63.81 18.47 20.06 63.81 63.81 12.06 18.14 13.02 204.8 194.6 0.0 0.087 83.71
2020-04-04 17:10 64.06 18.88 20.79 64.06 64.06 7.96 15.82 12.21 249.1 215.9 0.0 0.084 83.71
2020-04-04 17:15 64.24 18.37 20.29 64.24 64.24 13.49 14.2 9.51 173.0 216.0 0.0 0.086 83.7
2020-04-04 17:20 64.29 18.47 20.46 64.29 64.29 13.31 19.22 11.95 214.2 200.0 0.0 0.086 83.68
2020-04-04 17:25 63.86 18.17 19.72 63.86 63.86 12.59 20.11 15.14 212.9 209.5 0.0 0.083 83.66
2020-04-04 17:30 63.81 18.13 19.63 63.81 63.81 11.16 18.68 13.85 225.7 220.4 0.0 0.07 83.62
2020-04-04 17:35 63.86 18.54 20.2 63.86 63.86 9.91 20.11 12.86 179.1 202.6 0.0 0.07 83.61
2020-04-04 17:40 63.19 18.27 19.3 63.19 63.19 13.67 16.17 12.39 170.8 189.4 0.0 0.064 83.59
2020-04-04 17:45 63.55 18.03 19.29 63.55 63.55 19.04 19.04 14.45 187.0 194.9 0.0 0.058 83.53
2020-04-04 17:50 63.32 18.17 19.28 63.32 63.32 11.88 16.71 14.12 219.0 209.7 0.0 0.054 83.5
2020-04-04 17:55 63.43 18.0 19.15 63.43 63.43 10.45 15.1 11.57 184.3 191.8 0.0 0.051 83.46
2020-04-04 18:00 62.58 27.1 28.21 62.58 62.58 10.45 11.88 8.75 149.1 160.7 0.0 0.046 83.41
2020-04-04 18:05 59.88 32.99 30.69 59.88 59.88 13.31 13.31 9.22 172.1 148.5 0.0 0.042 83.37
2020-04-04 18:10 59.32 33.61 30.66 59.32 59.32 12.95 16.35 11.54 150.9 147.0 0.0 0.039 83.35
2020-04-04 18:15 58.66 35.01 31.08 58.66 58.66 15.64 15.82 13.22 141.9 145.3 0.0 0.036 83.34
2020-04-04 18:20 57.81 36.75 31.53 57.81 57.81 13.49 19.57 13.71 142.5 145.4 0.0 0.033 83.3
2020-04-04 18:25 57.69 37.6 31.98 57.69 57.69 12.95 18.32 12.93 134.7 138.4 0.0 0.03 83.28
2020-04-04 18:30 57.07 38.25 31.86 57.07 57.07 11.88 19.93 15.03 135.9 128.9 0.0 0.027 83.26
2020-04-04 18:35 56.97 39.17 32.35 56.97 56.97 7.96 18.14 12.82 140.8 134.8 0.0 0.024 83.23
2020-04-04 18:40 56.53 39.58 32.23 56.53 56.53 13.13 19.22 12.17 139.3 130.4 0.0 0.021 83.17
2020-04-04 18:45 55.98 39.96 31.96 55.98 55.98 13.13 18.68 14.45 143.5 132.9 0.0 0.019 83.12
2020-04-04 18:50 55.62 40.71 32.1 55.62 55.62 12.06 17.96 13.47 118.6 133.1 0.0 0.016 83.05
2020-04-04 18:55 55.38 40.85 31.97 55.38 55.38 11.7 17.96 13.04 130.2 136.1 0.0 0.013 82.98
2020-04-04 19:00 55.02 41.98 32.33 55.02 55.02 12.95 16.71 12.89 141.6 141.0 0.0 0.011 82.96
2020-04-04 19:05 54.66 42.87 32.52 54.66 54.66 15.82 16.35 12.5 149.9 141.6 0.0 0.008 82.89
2020-04-04 19:10 54.1 43.86 32.58 54.1 54.1 9.73 15.64 12.62 134.6 137.5 0.0 0.006 82.81
2020-04-04 19:15 53.56 44.88 32.67 53.56 53.56 11.52 14.2 9.71 145.4 139.5 0.0 0.003 82.76
2020-04-04 19:20 53.13 45.57 32.65 53.13 53.13 13.31 15.1 9.75 132.9 147.5 0.0 0.0 82.72
2020-04-04 19:25 52.77 46.28 32.71 52.77 52.77 10.98 15.46 11.81 135.8 138.7 0.0 0.0 82.63
2020-04-04 19:30 52.47 47.0 32.81 52.47 52.47 11.52 15.64 11.74 134.6 141.1 0.0 0.0 82.56
2020-04-04 19:35 52.29 47.48 32.9 52.29 52.29 9.91 14.2 11.23 133.3 130.3 0.0 0.0 82.49
2020-04-04 19:40 51.73 48.17 32.75 51.73 51.73 13.49 14.56 11.21 139.7 133.3 0.0 0.0 82.44
2020-04-04 19:45 51.67 48.37 32.8 51.67 51.67 14.2 15.28 11.54 142.3 131.1 0.0 0.0 82.36
2020-04-04 19:50 51.37 48.92 32.8 51.37 51.37 11.52 14.38 11.12 138.0 131.1 0.0 0.0 82.31
2020-04-04 19:55 51.08 49.33 32.74 51.08 51.08 8.12 13.13 9.37 143.8 136.1 0.0 0.0 82.26
2020-04-04 20:00 50.7 49.81 32.64 50.7 50.7 7.78 11.88 8.9 143.6 143.3 0.0 0.0 82.18
2020-04-04 20:05 50.27 50.6 32.63 50.27 50.27 8.86 11.7 8.97 152.7 143.2 0.0 0.0 82.09
2020-04-04 20:10 50.16 51.15 32.8 50.16 50.16 9.4 11.16 8.9 128.6 141.1 0.0 0.0 82.04
2020-04-04 20:15 49.86 51.46 32.67 46.58 49.86 7.96 11.7 9.48 139.7 139.1 0.0 0.0 81.9
2020-04-04 20:20 49.62 52.21 32.81 46.09 49.62 8.48 10.45 7.7 130.5 143.6 0.0 0.0 81.77
2020-04-04 20:25 49.32 52.69 32.75 45.51 49.32 9.04 11.16 8.41 125.1 138.2 0.0 0.0 81.68
2020-04-04 20:30 49.06 53.24 32.78 45.62 49.06 7.96 10.09 8.01 135.6 140.2 0.0 0.0 81.57
2020-04-04 20:35 48.96 53.51 32.8 46.13 48.96 6.53 11.16 8.12 126.2 137.8 0.0 0.0 81.32
2020-04-04 20:40 48.7 54.13 32.86 45.83 48.7 6.53 9.04 6.8 147.3 141.0 0.0 0.0 81.18
2020-04-04 20:45 48.4 54.81 32.88 45.04 48.4 7.43 8.48 6.35 130.8 136.0 0.0 0.0 81.05
2020-04-04 20:50 47.97 55.56 32.82 45.86 47.97 4.92 8.12 5.55 140.0 132.6 0.0 0.0 80.73
2020-04-04 20:55 47.73 56.18 32.88 44.94 47.73 6.0 6.71 4.92 117.9 135.4 0.0 0.0 80.6
2020-04-04 21:00 47.53 56.48 32.82 45.59 47.53 4.56 8.48 5.88 101.0 124.1 0.0 0.0 80.49
2020-04-04 21:05 47.17 57.2 32.8 44.38 47.17 5.82 7.25 5.93 103.8 118.9 0.0 0.0 80.31
2020-04-04 21:10 47.12 57.41 32.84 44.32 47.12 5.82 9.04 5.95 121.3 126.5 0.0 0.0 79.86
2020-04-04 21:15 46.87 58.12 32.91 43.53 46.87 6.71 8.12 4.74 133.6 115.0 0.0 0.0 79.66
2020-04-04 21:20 46.74 58.57 32.99 44.08 46.74 5.46 7.07 5.06 113.8 116.0 0.0 0.0 79.48
2020-04-04 21:25 46.38 59.26 32.94 43.88 46.38 5.1 6.53 4.56 122.3 118.5 0.0 0.0 79.36
2020-04-04 21:30 46.15 59.87 32.97 44.52 46.15 3.85 5.82 4.61 114.2 114.5 0.0 0.0 79.16
2020-04-04 21:35 45.9 60.42 32.96 44.71 45.9 3.31 5.82 3.78 131.1 110.1 0.0 0.0 78.89
2020-04-04 21:40 45.41 61.58 32.98 42.62 45.41 5.28 6.35 4.63 106.5 109.7 0.0 0.0 78.57
2020-04-04 21:45 45.16 62.47 33.1 42.09 45.16 5.64 5.64 4.03 119.8 113.8 0.0 0.0 78.24
2020-04-04 21:50 44.67 63.22 32.94 42.67 44.67 4.03 6.0 4.76 119.4 117.7 0.0 0.0 77.77
2020-04-04 21:55 44.19 64.72 33.06 40.83 44.19 5.82 6.35 4.74 108.0 111.9 0.0 0.0 77.47
2020-04-04 22:00 43.83 65.51 33.02 40.51 43.83 5.64 6.0 5.03 111.8 109.8 0.0 0.0 77.32
2020-04-04 22:05 43.63 66.16 33.08 40.06 43.63 6.0 6.89 5.77 108.2 116.8 0.0 0.0 77.22
2020-04-04 22:10 43.57 66.64 33.2 40.45 43.57 5.28 7.61 5.53 121.9 121.0 0.0 0.0 77.09
2020-04-04 22:15 43.32 67.6 33.32 39.92 43.32 5.64 7.43 5.97 113.3 116.8 0.0 0.0 77.0
2020-04-04 22:20 43.21 67.94 33.34 39.56 43.21 6.0 7.61 6.58 114.6 123.3 0.0 0.0 76.91
2020-04-04 22:25 43.09 69.44 33.77 39.09 43.09 6.53 7.96 6.26 129.8 120.2 0.0 0.0 76.78
2020-04-04 22:30 42.91 69.99 33.79 39.31 42.91 5.82 7.25 6.0 125.9 121.0 0.0 0.0 76.73
2020-04-04 22:35 42.84 70.61 33.94 38.59 42.84 6.89 7.78 6.46 103.1 117.7 0.0 0.0 76.66
2020-04-04 22:40 42.66 70.61 33.77 40.34 42.66 4.03 6.53 5.44 114.7 127.9 0.0 0.0 76.62
2020-04-04 22:45 42.67 70.07 33.6 42.67 42.67 2.77 5.1 3.13 108.1 149.4 0.0 0.0 76.57
2020-04-04 22:50 42.37 71.64 33.86 40.16 42.37 3.85 4.38 2.98 107.4 117.0 0.0 0.0 76.39
2020-04-04 22:55 41.86 72.94 33.82 41.86 41.86 1.16 3.85 2.15 101.6 70.6 0.0 0.0 76.33
2020-04-04 23:00 41.07 73.76 33.34 37.63 41.07 5.1 5.1 3.31 347.5 12.4 0.0 0.0 76.12
2020-04-04 23:05 40.28 76.35 33.43 36.83 40.28 4.92 5.82 5.15 6.4 1.6 0.0 0.0 75.96
2020-04-04 23:10 41.14 75.54 34.0 38.28 41.14 4.38 5.64 4.54 68.3 35.7 0.0 0.0 75.88
2020-04-04 23:15 42.13 73.77 34.37 39.9 42.13 3.85 5.1 3.96 90.0 80.1 0.0 0.0 75.79
2020-04-04 23:20 41.95 73.77 34.19 40.03 41.95 3.49 5.28 3.91 107.7 94.7 0.0 0.0 75.76
2020-04-04 23:25 41.65 74.73 34.22 38.18 41.65 5.28 6.0 4.81 123.5 117.1 0.0 0.0 75.69
2020-04-04 23:30 41.14 76.16 34.21 38.28 41.14 4.38 6.35 5.15 156.0 133.4 0.0 0.0 75.6
2020-04-04 23:35 41.14 76.47 34.31 37.85 41.14 4.92 6.0 4.9 145.8 140.2 0.0 0.0 74.79
2020-04-04 23:40 40.91 76.71 34.16 38.16 40.91 4.21 6.71 5.06 158.0 149.7 0.0 0.0 74.71
2020-04-04 23:45 40.53 77.29 33.98 37.27 40.53 4.74 6.71 5.57 158.7 146.4 0.0 0.0 74.64
2020-04-04 23:50 39.92 78.89 33.9 35.88 39.92 5.64 6.53 5.28 137.0 145.2 0.0 0.0 74.61
2020-04-04 23:55 39.31 80.1 33.69 35.55 39.31 5.1 6.0 5.21 137.5 136.9 0.0 0.0 74.57
2020-04-05 00:00 39.13 80.9 33.76 35.48 39.13 4.92 5.1 4.68 135.8 139.1 0.0 0.0 74.57
2020-04-05 00:05 39.13 80.7 33.7 35.78 39.13 4.56 5.28 4.61 138.3 132.6 0.0 0.0 74.61
2020-04-05 00:10 38.93 81.4 33.72 36.2 38.93 3.85 5.1 4.45 122.6 127.3 0.0 0.0 74.59
2020-04-05 00:15 39.0 81.5 33.82 36.29 39.0 3.85 4.56 3.87 124.0 122.0 0.0 0.0 74.53
2020-04-05 00:20 38.93 82.0 33.9 35.7 38.93 4.38 4.56 3.76 121.5 121.3 0.0 0.0 74.52
2020-04-05 00:25 38.8 81.9 33.75 38.8 38.8 2.24 4.74 3.18 104.5 124.2 0.0 0.0 74.5
2020-04-05 00:30 38.44 83.2 33.79 36.01 38.44 3.49 3.49 2.33 98.4 109.3 0.0 0.0 74.44
2020-04-05 00:35 37.9 83.1 33.23 37.9 37.9 2.95 3.67 3.06 105.5 117.0 0.0 0.0 74.44
2020-04-05 00:40 37.6 84.8 33.44 37.6 37.6 2.42 4.38 2.95 122.5 120.2 0.0 0.0 74.43
2020-04-05 00:45 37.47 84.8 33.32 37.47 37.47 2.06 2.95 2.37 152.5 123.8 0.0 0.0 74.37
2020-04-05 00:50 37.22 86.2 33.48 37.22 37.22 1.16 2.77 1.72 34.9 148.5 0.0 0.0 74.32
2020-04-05 00:55 37.47 85.4 33.49 37.47 37.47 2.06 3.49 2.28 183.5 121.1 0.0 0.0 74.3
2020-04-05 01:00 37.6 85.2 33.56 37.6 37.6 0.0 3.49 2.19 200.9 144.3 0.0 0.0 74.26
2020-04-05 01:05 37.17 86.6 33.54 37.17 37.17 0.98 3.67 2.06 233.6 205.0 0.0 0.0 74.23
2020-04-05 01:10 39.45 78.64 33.37 37.36 39.45 3.31 10.63 5.08 213.7 194.0 0.0 0.0 74.16
2020-04-05 01:15 37.54 81.4 32.37 35.4 37.54 3.13 4.74 2.91 211.7 224.0 0.0 0.0 74.16
2020-04-05 01:20 36.88 86.9 33.34 36.88 36.88 2.95 5.28 3.09 231.2 212.5 0.0 0.0 74.12
2020-04-05 01:25 37.11 84.5 32.87 37.11 37.11 1.7 4.74 3.27 226.1 251.3 0.0 0.0 74.07
2020-04-05 01:30 36.63 83.5 32.1 36.63 36.63 1.88 4.38 2.59 271.6 263.9 0.0 0.0 73.98
2020-04-05 01:35 35.33 85.1 31.3 31.87 35.33 4.03 5.82 3.94 305.4 290.2 0.0 0.0 73.94
2020-04-05 01:40 36.19 80.0 30.62 33.44 36.19 3.49 5.46 4.14 283.4 282.7 0.0 0.0 73.83
2020-04-05 01:45 37.18 75.5 30.16 37.18 37.18 2.95 5.1 4.12 275.9 292.9 0.0 0.0 73.78
2020-04-05 01:50 37.11 71.3 28.68 34.49 37.11 3.49 3.49 2.53 281.1 284.1 0.0 0.0 73.72
2020-04-05 01:55 38.71 57.94 25.17 35.61 38.71 4.21 4.74 4.07 257.0 273.7 0.0 0.0 73.65
2020-04-05 02:00 40.32 50.02 23.15 37.02 40.32 4.74 5.1 4.21 271.3 250.8 0.0 0.0 73.22
2020-04-05 02:05 40.8 51.25 24.18 38.03 40.8 4.21 4.92 4.43 275.5 264.5 0.0 0.0 73.11
2020-04-05 02:10 39.7 53.78 24.31 36.92 39.7 4.03 4.92 4.38 281.9 283.4 0.0 0.0 73.04
2020-04-05 02:15 39.27 51.73 22.98 36.43 39.27 4.03 4.56 4.07 294.8 286.0 0.0 0.0 73.0
2020-04-05 02:20 39.94 50.36 22.96 39.94 39.94 2.77 3.85 3.51 334.1 300.0 0.0 0.0 72.91
2020-04-05 02:25 35.58 69.08 26.44 35.58 35.58 2.95 3.49 2.8 45.3 56.8 0.0 0.0 72.86
2020-04-05 02:30 33.93 78.95 28.09 30.64 33.93 3.67 4.38 3.11 61.2 46.0 0.0 0.0 72.75
2020-04-05 02:35 34.54 75.06 27.45 30.95 34.54 4.03 4.56 3.18 55.8 51.9 0.0 0.0 72.66
2020-04-05 02:40 36.01 69.42 26.98 36.01 36.01 2.77 4.56 2.68 70.7 89.5 0.0 0.0 72.57
2020-04-05 02:45 36.75 64.5 25.9 33.69 36.75 3.85 3.85 2.68 99.3 72.1 0.0 0.0 72.43
2020-04-05 02:50 38.89 54.66 23.95 38.89 38.89 2.42 4.21 2.91 88.7 87.3 0.0 0.0 72.32
2020-04-05 02:55 38.89 57.98 25.36 38.89 38.89 1.16 3.67 2.28 94.1 76.3 0.0 0.0 72.19
2020-04-05 03:00 38.48 54.98 23.7 38.48 38.48 0.0 2.59 1.36 94.9 127.0 0.0 0.0 72.09
2020-04-05 03:05 39.78 43.33 19.26 39.78 39.78 1.34 2.06 1.1 191.1 189.3 0.0 0.0 71.85
2020-04-05 03:10 40.87 41.55 19.28 40.87 40.87 0.0 1.52 0.2 298.0 182.6 0.0 0.0 71.76
2020-04-05 03:15 41.74 40.69 19.57 41.74 41.74 2.06 2.24 1.79 323.6 299.0 0.0 0.0 71.65
2020-04-05 03:20 41.68 38.37 18.15 41.68 41.68 1.16 2.24 1.61 314.7 319.7 0.0 0.0 71.56
2020-04-05 03:25 42.6 36.15 17.59 42.6 42.6 1.16 1.7 1.43 264.1 293.8 0.0 0.0 71.44
2020-04-05 03:30 42.66 35.02 16.9 42.66 42.66 2.06 2.06 1.43 261.8 266.3 0.0 0.0 71.31
2020-04-05 03:35 42.53 36.46 17.72 42.53 42.53 0.0 2.06 1.25 258.6 263.1 0.0 0.0 71.19
2020-04-05 03:40 41.43 39.19 18.42 41.43 41.43 1.16 2.77 0.89 193.6 234.5 0.0 0.0 71.02
2020-04-05 03:45 38.48 46.26 19.61 38.48 38.48 1.16 4.03 2.21 175.5 161.3 0.0 0.0 70.77
2020-04-05 03:50 38.17 44.62 18.49 38.17 38.17 1.52 1.52 0.4 135.2 155.5 0.0 0.0 70.59
2020-04-05 03:55 38.35 42.88 17.73 38.35 38.35 0.0 1.52 0.31 230.5 130.2 0.0 0.0 70.34
2020-04-05 04:00 39.27 40.22 17.07 39.27 39.27 0.0 0.81 0.02 320.8 349.6 0.0 0.0 70.27
2020-04-05 04:05 38.86 41.93 17.66 38.86 38.86 1.88 2.95 1.66 253.9 306.6 0.0 0.0 70.14
2020-04-05 04:10 40.08 38.89 17.02 40.08 40.08 2.77 3.13 2.33 251.9 264.9 0.0 0.0 70.0
2020-04-05 04:15 40.51 39.23 17.61 38.38 40.51 3.49 3.67 3.0 254.2 268.9 0.0 0.0 69.89
2020-04-05 04:20 41.61 38.95 18.44 38.53 41.61 4.74 7.25 4.94 283.4 255.4 0.0 0.0 69.76
2020-04-05 04:25 40.08 41.35 18.45 36.6 40.08 4.92 5.64 5.01 269.4 271.9 0.0 0.0 69.58
2020-04-05 04:30 39.22 43.29 18.73 35.59 39.22 4.92 5.64 4.79 277.9 285.2 0.0 0.0 69.48
2020-04-05 04:35 41.18 38.27 17.64 36.91 41.18 6.35 8.3 5.59 279.1 282.5 0.0 0.0 69.35
2020-04-05 04:40 40.93 39.29 18.02 37.73 40.93 4.74 6.89 5.28 291.5 291.0 0.0 0.0 69.22
2020-04-05 04:45 40.5 39.56 17.79 36.1 40.5 6.35 6.35 5.53 294.2 289.3 0.0 0.0 69.13
2020-04-05 04:50 39.45 42.3 18.41 34.73 39.45 6.53 6.71 5.73 293.4 286.1 0.0 0.0 69.01
2020-04-05 04:55 39.27 43.39 18.84 34.99 39.27 5.82 7.43 6.2 269.0 280.7 0.0 0.0 68.92
2020-04-05 05:00 38.84 44.0 18.77 34.0 38.84 6.53 7.25 6.13 291.0 280.4 0.0 0.0 68.83
2020-04-05 05:05 39.15 42.43 18.2 34.37 39.15 6.53 7.07 6.49 278.7 273.4 0.0 0.0 68.74
2020-04-05 05:10 38.64 43.46 18.3 34.12 38.64 6.0 8.12 6.89 274.1 271.5 0.0 0.0 68.54
2020-04-05 05:15 37.9 44.62 18.24 32.65 37.9 6.89 7.07 6.4 271.6 274.4 0.0 0.0 68.43
2020-04-05 05:20 37.6 45.06 18.19 31.65 37.6 7.96 7.96 6.69 281.4 275.6 0.0 0.0 68.32
2020-04-05 05:25 37.54 45.71 18.47 32.56 37.54 6.35 7.96 7.0 292.4 284.9 0.0 0.0 68.18
2020-04-05 05:30 37.6 45.47 18.4 32.51 37.6 6.53 7.43 6.76 281.2 283.4 0.0 0.0 68.11
2020-04-05 05:35 37.6 44.89 18.1 31.85 37.6 7.61 7.61 6.58 286.5 285.6 0.0 0.0 68.0
2020-04-05 05:40 37.6 45.43 18.38 32.06 37.6 7.25 7.78 6.76 288.6 284.5 0.0 0.0 67.93
2020-04-05 05:45 37.72 45.36 18.46 32.66 37.72 6.53 8.12 6.71 293.6 287.9 0.0 0.0 67.84
2020-04-05 05:50 37.9 45.57 18.73 34.2 37.9 4.74 8.12 6.51 275.2 283.6 0.0 0.0 67.75
2020-04-05 05:55 37.72 45.57 18.57 32.43 37.72 6.89 7.43 6.4 271.1 278.2 0.0 0.0 67.66
2020-04-05 06:00 38.21 45.43 18.94 33.48 38.21 6.17 7.25 6.33 272.5 271.4 0.0 0.0 67.53
2020-04-05 06:05 37.96 46.18 19.09 33.06 37.96 6.35 6.71 6.08 283.1 283.8 0.0 0.0 67.39
2020-04-05 06:10 38.71 44.89 19.12 34.58 38.71 5.46 6.71 5.64 250.9 264.2 0.0 0.0 67.32
2020-04-05 06:15 38.46 45.77 19.35 34.42 38.46 5.28 5.46 4.92 252.6 248.3 0.0 0.0 67.23
2020-04-05 06:20 38.34 45.47 19.08 34.41 38.34 5.1 5.46 5.06 254.4 251.1 0.0 0.0 67.17
2020-04-05 06:25 38.71 45.91 19.65 34.58 38.71 5.46 5.64 5.01 283.9 267.4 0.0 0.0 67.1
2020-04-05 06:30 38.39 46.59 19.7 34.2 38.39 5.46 6.0 5.44 267.6 275.2 0.0 0.0 67.01
2020-04-05 06:35 38.46 47.35 20.14 33.9 38.46 6.0 6.35 5.66 270.0 270.1 0.0 0.0 66.87
2020-04-05 06:40 38.52 47.45 20.24 33.97 38.52 6.0 6.35 5.53 266.5 268.6 0.0 0.0 66.76
2020-04-05 06:45 39.38 47.0 20.81 34.99 39.38 6.0 6.17 5.57 264.8 262.1 0.0 0.0 66.52
2020-04-05 06:50 40.93 44.54 20.96 36.84 40.93 6.0 6.71 5.97 263.5 259.1 0.0 0.0 66.31
2020-04-05 06:55 42.15 42.56 21.0 38.3 42.15 6.0 7.43 6.35 253.4 257.9 0.0 0.0 66.22
2020-04-05 07:00 42.89 41.71 21.19 38.86 42.89 6.53 7.43 6.46 264.6 254.1 0.0 0.002 66.16
2020-04-05 07:05 43.63 40.17 20.97 39.54 43.63 6.89 8.12 6.0 221.2 243.8 0.0 0.003 66.06
2020-04-05 07:10 44.17 39.35 20.97 40.92 44.17 5.64 7.61 5.82 240.2 232.5 0.0 0.004 66.0
2020-04-05 07:15 45.16 38.19 21.16 42.2 45.16 5.46 7.25 5.97 224.5 227.8 0.0 0.008 65.68
2020-04-05 07:20 45.95 37.92 21.7 44.01 45.95 4.21 6.35 5.1 209.7 218.3 0.0 0.018 65.61
2020-04-05 07:25 47.17 35.59 21.29 45.04 47.17 4.74 7.07 5.64 234.6 222.9 0.0 0.025 65.37
2020-04-05 07:30 47.97 35.55 21.97 46.34 47.97 4.21 6.0 5.06 220.5 227.8 0.0 0.024 65.3
2020-04-05 07:35 48.47 34.67 21.82 45.46 48.47 6.71 8.68 5.75 229.0 228.3 0.0 0.022 65.19
2020-04-05 07:40 48.9 33.98 21.73 46.34 48.9 6.0 8.86 6.42 207.0 231.5 0.0 0.025 64.31
2020-04-05 07:45 49.69 33.6 22.16 47.1 49.69 6.35 9.04 6.98 227.5 237.3 0.0 0.029 64.18
2020-04-05 07:50 50.16 33.09 22.21 50.16 50.16 6.89 9.22 7.0 219.2 234.2 0.0 0.032 64.13
2020-04-05 07:55 50.95 32.64 22.58 50.95 50.95 5.64 7.96 6.58 214.9 233.1 0.0 0.039 64.04
2020-04-05 08:00 51.57 31.03 21.92 51.57 51.57 6.53 8.86 6.69 226.1 226.4 0.0 0.041 64.0
2020-04-05 08:05 52.23 30.72 22.26 52.23 52.23 7.43 7.96 5.97 222.5 218.6 0.0 0.047 63.95
2020-04-05 08:10 52.54 29.6 21.65 52.54 52.54 8.86 8.86 6.87 218.8 212.8 0.0 0.045 63.86
2020-04-05 08:15 53.08 29.56 22.09 53.08 53.08 7.78 9.91 7.38 209.2 220.0 0.0 0.04 63.84
2020-04-05 08:20 53.2 29.39 22.06 53.2 53.2 10.63 13.67 9.87 219.0 217.8 0.0 0.04 63.84
2020-04-05 08:25 53.38 28.16 21.21 53.38 53.38 12.77 14.92 12.24 223.0 228.1 0.0 0.047 63.81
2020-04-05 08:30 53.74 28.46 21.77 53.74 53.74 10.98 13.13 10.36 219.5 224.6 0.0 0.053 63.82
2020-04-05 08:35 54.41 27.78 21.77 54.41 54.41 11.16 11.88 10.31 219.8 226.0 0.0 0.059 63.84
2020-04-05 08:40 54.72 27.98 22.2 54.72 54.72 9.91 13.13 10.11 213.0 219.9 0.0 0.058 63.91
2020-04-05 08:45 55.31 26.61 21.53 55.31 55.31 11.88 12.77 9.57 238.9 222.6 0.0 0.074 64.0
2020-04-05 08:50 55.31 26.17 21.13 55.31 55.31 12.24 14.2 11.32 203.8 214.3 0.0 0.066 64.11
2020-04-05 08:55 55.8 25.62 21.05 55.8 55.8 9.22 11.7 9.93 232.1 213.0 0.0 0.07 64.24
2020-04-05 09:00 56.46 24.6 20.66 56.46 56.46 10.63 11.16 9.87 213.9 224.4 0.0 0.081 64.42
2020-04-05 09:05 56.84 22.24 18.61 56.84 56.84 10.98 14.2 10.42 226.2 224.0 0.0 0.079 64.67
2020-04-05 09:10 57.13 23.06 19.7 57.13 57.13 10.09 11.34 9.62 230.9 239.9 0.0 0.086 64.89
2020-04-05 09:15 57.25 23.67 20.42 57.25 57.25 10.63 13.13 10.36 240.4 234.7 0.0 0.093 65.12
2020-04-05 09:20 57.92 23.06 20.37 57.92 57.92 10.63 13.85 10.16 241.8 232.3 0.0 0.096 65.32
2020-04-05 09:25 57.67 22.54 19.63 57.67 57.67 11.34 14.03 11.95 226.5 228.1 0.0 0.104 65.5
2020-04-05 09:30 58.6 21.73 19.55 58.6 58.6 9.73 12.59 9.93 222.1 240.2 0.0 0.11 65.68
2020-04-05 09:35 58.41 21.76 19.42 58.41 58.41 10.98 12.77 10.83 261.9 255.4 0.0 0.117 65.84
2020-04-05 09:40 58.41 21.38 19.01 58.41 58.41 11.7 14.38 10.36 248.3 243.5 0.0 0.112 66.02

Data is courtesy of the NM Climate Center. DO NOT USE IN LEGAL PROCEEDINGS.